Time;durP1;ratioP1;P1;durP2;ratioP2;P2;SDS_P1;SDS_P2;PMS_P1;PMS_P2;Temp;Humidity;BMP_temperature;BMP_pressure;BME280_temperature;BME280_humidity;BME280_pressure;Samples;Min_cycle;Max_cycle;Signal;HPM_P1;HPM_P2
2022/03/15 00:00:41;;;;;;;56.67;32.83;;;;;;;0.35;56.10;96936.97;5028200;28;20033;-66
2022/03/15 00:03:07;;;;;;;48.25;29.35;;;;;;;0.21;56.73;96923.31;5027940;28;20036;-68
2022/03/15 00:05:32;;;;;;;55.15;31.67;;;;;;;0.17;56.79;96930.06;5027602;28;20032;-67
2022/03/15 00:07:58;;;;;;;51.83;29.67;;;;;;;0.35;56.96;96966.59;5027966;28;20084;-70
2022/03/15 00:10:24;;;;;;;52.35;31.52;;;;;;;0.31;56.30;96954.69;5027688;28;20032;-69
2022/03/15 00:12:51;;;;;;;54.88;33.08;;;;;;;0.19;56.96;96950.38;5027655;28;20057;-69
2022/03/15 00:15:16;;;;;;;58.72;32.03;;;;;;;0.13;56.70;96955.38;5027640;28;20041;-67
2022/03/15 00:17:44;;;;;;;52.35;32.65;;;;;;;-0.50;57.88;96863.50;5027060;28;20021;-66
2022/03/15 00:20:18;;;;;;;51.90;31.33;;;;;;;0.01;57.88;96961.19;5028196;28;20025;-70
2022/03/15 00:22:44;;;;;;;56.33;33.15;;;;;;;-0.01;58.19;96957.81;5026248;28;20061;-67
2022/03/15 00:25:11;;;;;;;55.40;32.58;;;;;;;-0.13;57.98;96950.94;5027712;28;20046;-69
2022/03/15 00:27:37;;;;;;;56.58;33.33;;;;;;;-0.09;57.85;96957.72;5027696;28;20108;-69
2022/03/15 00:30:05;;;;;;;46.13;29.88;;;;;;;-0.26;56.97;96928.81;5027021;28;20133;-68
2022/03/15 00:32:31;;;;;;;49.75;30.55;;;;;;;-0.03;57.99;96947.63;5027501;28;20029;-67
2022/03/15 00:34:57;;;;;;;55.70;30.92;;;;;;;-0.02;57.30;96939.22;5027708;28;20033;-68
2022/03/15 00:37:22;;;;;;;48.75;29.83;;;;;;;-0.02;57.09;96930.72;5027379;28;20041;-68
2022/03/15 00:39:48;;;;;;;50.08;29.77;;;;;;;0.02;57.18;96942.63;5027356;28;20087;-67
2022/03/15 00:42:14;;;;;;;45.13;29.40;;;;;;;-0.12;57.31;96923.88;5027692;28;20025;-68
2022/03/15 00:44:39;;;;;;;51.95;31.13;;;;;;;-0.06;57.62;96939.16;5027581;28;20039;-68
2022/03/15 00:47:06;;;;;;;47.25;29.90;;;;;;;-0.10;57.56;96935.75;5027318;28;20052;-67
2022/03/15 00:49:31;;;;;;;51.47;29.10;;;;;;;-0.32;57.59;96909.31;5027349;28;20029;-66
2022/03/15 00:51:57;;;;;;;44.90;28.10;;;;;;;-0.20;57.82;96939.88;5027031;28;20029;-68
2022/03/15 00:54:23;;;;;;;46.85;30.30;;;;;;;-0.19;58.17;96945.78;5028702;28;20041;-69
2022/03/15 00:56:49;;;;;;;48.83;30.55;;;;;;;-0.16;57.89;96929.75;5029613;28;20029;-67
2022/03/15 00:59:14;;;;;;;48.83;28.75;;;;;;;-0.37;57.54;96894.06;5030982;28;20112;-66
2022/03/15 01:01:40;;;;;;;43.72;28.02;;;;;;;-0.44;57.93;96876.25;5030757;28;20164;-68
2022/03/15 01:04:05;;;;;;;43.80;25.63;;;;;;;-0.23;57.31;96927.16;5030292;28;20033;-67
2022/03/15 01:06:30;;;;;;;46.28;28.52;;;;;;;-0.53;58.08;96892.19;5030980;28;20466;-68
2022/03/15 01:08:56;;;;;;;41.90;27.77;;;;;;;-0.47;58.57;96911.72;5030678;28;20079;-69
2022/03/15 01:11:21;;;;;;;43.88;29.27;;;;;;;-0.44;57.95;96916.81;5030816;28;20108;-68
2022/03/15 01:13:47;;;;;;;53.28;28.02;;;;;;;-0.72;58.37;96875.97;5030527;28;20065;-68
2022/03/15 01:16:13;;;;;;;51.83;28.08;;;;;;;-0.50;58.78;96925.19;5030187;28;20030;-68
2022/03/15 01:18:41;;;;;;;46.95;28.77;;;;;;;-0.47;58.74;96925.22;5030434;28;20079;-68
2022/03/15 01:21:07;;;;;;;45.05;28.67;;;;;;;-0.43;59.42;96928.63;5030557;28;20025;-68
2022/03/15 01:23:32;;;;;;;42.17;27.92;;;;;;;-0.78;58.58;96874.19;5028981;28;20526;-68
2022/03/15 01:25:58;;;;;;;50.78;29.20;;;;;;;-0.46;59.33;96908.31;5030571;28;20040;-67
2022/03/15 01:28:24;;;;;;;44.42;28.50;;;;;;;-0.29;58.66;96924.56;5029720;28;20492;-67
2022/03/15 01:30:51;;;;;;;48.53;30.10;;;;;;;-0.37;59.36;96923.63;5030395;28;20116;-68
2022/03/15 01:33:17;;;;;;;52.72;31.23;;;;;;;-0.63;59.04;96898.84;5030082;28;20036;-68
2022/03/15 01:35:43;;;;;;;43.40;27.83;;;;;;;-0.61;59.35;96924.22;5030018;28;20747;-67
2022/03/15 01:38:09;;;;;;;46.67;30.70;;;;;;;-0.50;59.37;96937.00;5030362;28;20079;-67
2022/03/15 01:40:34;;;;;;;48.50;29.30;;;;;;;-0.50;59.57;96912.50;5029769;28;20109;-67
2022/03/15 01:43:00;;;;;;;49.92;29.90;;;;;;;-0.72;59.92;96873.44;5030188;28;20407;-67
2022/03/15 01:45:40;;;;;;;43.90;28.85;;;;;;;-0.47;59.85;96931.97;5030093;28;20022;-68
2022/03/15 01:48:07;;;;;;;47.00;29.52;;;;;;;-0.58;59.54;96940.28;5029873;28;20033;-67
2022/03/15 01:50:35;;;;;;;42.95;28.40;;;;;;;-0.79;59.81;96915.59;5030136;28;20029;-68
2022/03/15 01:53:01;;;;;;;45.58;28.92;;;;;;;-0.85;60.26;96910.44;5029672;28;20041;-67
2022/03/15 01:55:27;;;;;;;46.80;28.83;;;;;;;-0.71;60.40;96930.84;5029738;28;20059;-70
2022/03/15 01:57:54;;;;;;;43.17;29.13;;;;;;;-0.64;60.18;96945.31;5029711;28;20120;-69
2022/03/15 02:00:20;;;;;;;50.42;31.95;;;;;;;-0.64;60.45;96955.44;5029673;28;20052;-68
2022/03/15 02:02:46;;;;;;;56.80;34.35;;;;;;;-0.88;60.92;96932.34;5029614;28;20076;-68
2022/03/15 02:05:12;;;;;;;56.22;35.15;;;;;;;-0.84;60.88;96934.06;5028748;28;20033;-67
2022/03/15 02:07:38;;;;;;;65.65;37.35;;;;;;;-0.98;61.30;96906.91;5029014;28;20037;-68
2022/03/15 02:10:06;;;;;;;53.85;34.83;;;;;;;-0.84;61.21;96937.44;5029706;28;20108;-66
2022/03/15 02:12:37;;;;;;;51.53;34.40;;;;;;;-0.94;61.19;96940.72;5029765;28;20022;-66
2022/03/15 02:15:04;;;;;;;50.30;33.08;;;;;;;-1.02;61.39;96932.16;5029345;28;20052;-69
2022/03/15 02:17:30;;;;;;;53.50;31.27;;;;;;;-1.08;60.64;96945.59;5029300;28;20037;-65
2022/03/15 02:19:56;;;;;;;48.45;31.98;;;;;;;-1.16;60.58;96922.69;5029784;28;20028;-67
2022/03/15 02:22:22;;;;;;;53.63;32.30;;;;;;;-1.10;61.26;96929.50;5027981;28;20026;-67
2022/03/15 02:24:48;;;;;;;55.42;32.90;;;;;;;-1.42;61.08;96871.72;5029344;28;20026;-68
2022/03/15 02:27:13;;;;;;;52.25;33.47;;;;;;;-1.26;61.23;96897.22;5029307;28;20112;-68
2022/03/15 02:29:38;;;;;;;55.15;33.15;;;;;;;-1.12;61.56;96893.22;5028732;28;20109;-68
2022/03/15 02:32:04;;;;;;;62.72;36.05;;;;;;;-1.48;61.50;96819.38;5029314;28;20030;-66
2022/03/15 02:34:30;;;;;;;57.05;32.95;;;;;;;-0.77;60.93;96911.38;5028868;28;20035;-66
2022/03/15 02:36:55;;;;;;;54.42;34.88;;;;;;;-1.33;60.39;96813.66;5029115;28;20428;-69
2022/03/15 02:39:21;;;;;;;51.60;32.95;;;;;;;-0.71;61.04;96904.69;5028854;28;20021;-68
2022/03/15 02:41:47;;;;;;;50.88;33.28;;;;;;;-1.22;60.80;96820.50;5028787;28;20022;-67
2022/03/15 02:44:13;;;;;;;48.42;31.13;;;;;;;-0.82;61.04;96910.47;5029489;28;20438;-67
2022/03/15 02:46:42;;;;;;;51.58;32.08;;;;;;;-1.33;61.09;96851.63;5028918;28;20455;-67
2022/03/15 02:49:09;;;;;;;49.95;32.67;;;;;;;-0.88;61.08;96922.22;5028801;28;20030;-68
2022/03/15 02:51:35;;;;;;;49.75;31.90;;;;;;;-1.08;60.99;96927.88;5029272;28;20096;-68
2022/03/15 02:54:07;;;;;;;48.60;29.13;;;;;;;-1.32;61.45;96923.31;5028541;28;20037;-66
2022/03/15 02:56:35;;;;;;;43.38;25.95;;;;;;;-1.40;61.79;96922.38;5028744;28;20091;-67
2022/03/15 02:59:01;;;;;;;41.00;25.38;;;;;;;-1.40;61.19;96929.94;5028563;28;20489;-66
2022/03/15 03:01:27;;;;;;;38.70;24.85;;;;;;;-1.64;61.77;96895.00;5028667;28;20088;-68
2022/03/15 03:03:53;;;;;;;37.60;22.67;;;;;;;-1.61;61.52;96905.19;5028491;28;20033;-67
2022/03/15 03:06:19;;;;;;;49.08;26.67;;;;;;;-1.64;61.74;96920.31;5027141;28;20022;-66
2022/03/15 03:08:44;;;;;;;63.90;34.83;;;;;;;-1.78;62.18;96904.94;5028758;28;20044;-68
2022/03/15 03:11:10;;;;;;;78.60;41.58;;;;;;;-1.86;62.65;96889.63;5029118;28;20075;-68
2022/03/15 03:13:37;;;;;;;95.63;50.40;;;;;;;-1.88;62.96;96911.53;5028257;28;20428;-67
2022/03/15 03:16:05;;;;;;;99.03;48.40;;;;;;;-1.95;63.14;96910.56;5027889;28;20026;-70
2022/03/15 03:18:34;;;;;;;105.20;49.35;;;;;;;-2.85;63.37;96765.91;5028057;28;20037;-67
2022/03/15 03:21:04;;;;;;;112.15;56.17;;;;;;;-2.04;63.51;96896.09;5028482;28;20026;-71
2022/03/15 03:23:33;;;;;;;115.00;53.40;;;;;;;-2.23;63.17;96858.69;5028266;28;20040;-67
2022/03/15 03:25:59;;;;;;;113.88;55.50;;;;;;;-1.96;63.23;96908.88;5028643;28;20396;-68
2022/03/15 03:28:25;;;;;;;114.10;56.78;;;;;;;-1.98;63.55;96900.41;5027673;28;20037;-68
2022/03/15 03:30:51;;;;;;;98.85;48.50;;;;;;;-1.99;63.83;96902.91;5028265;28;20025;-68
2022/03/15 03:33:19;;;;;;;101.47;48.92;;;;;;;-2.18;63.45;96871.41;5028062;28;20028;-69
2022/03/15 03:35:45;;;;;;;76.88;40.90;;;;;;;-1.99;63.63;96900.38;5028469;28;20029;-67
2022/03/15 03:38:11;;;;;;;75.95;40.10;;;;;;;-1.99;63.54;96897.84;5028146;28;20033;-69
2022/03/15 03:40:37;;;;;;;79.05;38.25;;;;;;;-2.20;63.12;96858.75;5027885;28;20495;-67
2022/03/15 03:43:03;;;;;;;61.85;33.15;;;;;;;-2.10;63.45;96893.47;5028151;28;20090;-67
2022/03/15 03:45:28;;;;;;;58.95;30.85;;;;;;;-2.05;63.83;96902.00;5028044;28;20029;-69
2022/03/15 03:47:53;;;;;;;56.80;30.20;;;;;;;-2.04;63.83;96906.19;5027841;28;20034;-68
2022/03/15 03:50:19;;;;;;;56.42;29.00;;;;;;;-2.04;64.08;96916.31;5028064;28;20091;-67
2022/03/15 03:52:45;;;;;;;49.50;27.73;;;;;;;-2.14;64.01;96896.78;5027805;28;20481;-68
2022/03/15 03:55:11;;;;;;;49.33;28.67;;;;;;;-1.99;63.52;96918.09;5028142;28;20029;-68
2022/03/15 03:57:37;;;;;;;53.30;27.77;;;;;;;-1.93;63.72;96926.63;5028054;28;20523;-68
2022/03/15 04:00:05;;;;;;;63.70;32.60;;;;;;;-1.99;63.63;96921.44;5027973;28;20029;-68
2022/03/15 04:02:30;;;;;;;58.72;29.92;;;;;;;-1.94;63.32;96926.59;5027789;28;20030;-67
2022/03/15 04:04:56;;;;;;;60.45;33.13;;;;;;;-2.03;63.51;96924.78;5026317;28;20038;-68
2022/03/15 04:07:21;;;;;;;52.05;30.83;;;;;;;-2.06;63.17;96922.19;5027936;28;20033;-67
2022/03/15 04:09:47;;;;;;;59.85;32.42;;;;;;;-2.02;63.56;96934.03;5027915;28;20527;-68
2022/03/15 04:12:13;;;;;;;49.35;31.92;;;;;;;-1.86;64.05;96962.97;5027781;28;20535;-69
2022/03/15 04:14:39;;;;;;;54.92;31.92;;;;;;;-1.99;63.24;96948.41;5027897;28;20050;-68
2022/03/15 04:17:07;;;;;;;53.90;29.35;;;;;;;-1.97;63.93;96952.66;5027238;28;20037;-68
2022/03/15 04:19:32;;;;;;;51.15;30.35;;;;;;;-2.09;64.11;96944.88;5027667;28;20030;-69
2022/03/15 04:21:58;;;;;;;42.72;26.60;;;;;;;-1.94;64.12;96956.94;5027875;28;20017;-68
2022/03/15 04:24:24;;;;;;;39.08;24.10;;;;;;;-1.99;63.33;96935.78;5027803;28;20033;-71
2022/03/15 04:26:50;;;;;;;42.83;25.95;;;;;;;-2.01;63.67;96963.56;5027820;28;20451;-70
2022/03/15 04:29:16;;;;;;;42.58;26.33;;;;;;;-2.08;63.98;96969.34;5030668;28;20451;-68
2022/03/15 04:31:41;;;;;;;39.60;25.15;;;;;;;-2.05;63.90;96964.31;5031370;28;20025;-68
2022/03/15 04:34:07;;;;;;;37.70;25.55;;;;;;;-2.35;63.69;96909.88;5030367;28;20041;-66
2022/03/15 04:36:35;;;;;;;43.40;26.67;;;;;;;-2.12;63.68;96957.47;5034618;28;20095;-68
2022/03/15 04:39:00;;;;;;;45.55;27.50;;;;;;;-2.22;64.28;96964.03;5031675;28;20120;-67
2022/03/15 04:41:26;;;;;;;46.95;28.10;;;;;;;-2.25;64.65;96954.75;5030762;28;20769;-68
2022/03/15 04:43:52;;;;;;;52.67;29.67;;;;;;;-2.20;64.63;96967.44;5031452;28;20025;-69
2022/03/15 04:46:17;;;;;;;49.83;30.65;;;;;;;-2.29;64.35;96969.81;5031143;28;20029;-69
2022/03/15 04:48:43;;;;;;;52.88;29.23;;;;;;;-2.27;64.80;96974.06;5031233;28;20029;-69
2022/03/15 04:51:09;;;;;;;56.33;29.90;;;;;;;-2.25;64.70;96974.97;5031111;28;20057;-68
2022/03/15 04:53:35;;;;;;;46.30;28.90;;;;;;;-2.28;64.60;96972.38;5030743;28;20108;-68
2022/03/15 04:56:01;;;;;;;51.78;31.77;;;;;;;-2.19;64.57;96960.72;5031157;28;20103;-68
2022/03/15 04:58:27;;;;;;;52.38;30.33;;;;;;;-2.33;64.93;96936.03;5030853;28;20223;-68
2022/03/15 05:00:52;;;;;;;53.78;30.25;;;;;;;-2.19;64.74;96948.09;5031008;28;20104;-69
2022/03/15 05:03:18;;;;;;;51.65;32.33;;;;;;;-2.11;64.85;96964.25;5030925;28;20091;-69
2022/03/15 05:05:44;;;;;;;56.80;31.67;;;;;;;-2.20;64.79;96949.75;5030463;28;20541;-69
2022/03/15 05:08:10;;;;;;;52.05;31.23;;;;;;;-2.25;64.49;96931.13;5031217;28;20029;-67
2022/03/15 05:13:20;;;;;;;51.97;31.60;;;;;;;-2.07;64.87;96973.56;5030781;28;20099;-67
2022/03/15 05:15:47;;;;;;;51.78;31.35;;;;;;;-2.14;65.08;96957.44;5030767;28;20025;-69
2022/03/15 05:18:12;;;;;;;50.38;29.05;;;;;;;-1.99;65.02;96966.13;5029047;28;20099;-68
2022/03/15 05:20:38;;;;;;;44.42;27.20;;;;;;;-1.84;63.25;96973.97;5030823;28;20029;-69
2022/03/15 05:23:03;;;;;;;46.10;24.90;;;;;;;-1.92;63.80;96961.22;5029268;28;20017;-68
2022/03/15 05:25:29;;;;;;;43.03;27.25;;;;;;;-1.93;64.02;96951.06;5030752;28;20030;-68
2022/03/15 05:27:55;;;;;;;49.35;28.38;;;;;;;-1.73;63.79;96958.97;5030486;28;20634;-68
2022/03/15 05:30:20;;;;;;;45.75;27.05;;;;;;;-1.56;63.51;96969.34;5030083;28;20021;-68
2022/03/15 05:32:46;;;;;;;47.28;26.95;;;;;;;-1.45;63.57;96972.91;5030326;28;20021;-69
2022/03/15 05:35:11;;;;;;;41.05;24.70;;;;;;;-1.36;62.42;96972.19;5030315;28;20500;-68
2022/03/15 05:37:37;;;;;;;42.63;21.92;;;;;;;-1.54;62.36;96962.63;5029043;28;20128;-69
2022/03/15 05:40:04;;;;;;;45.10;25.17;;;;;;;-1.71;62.91;96973.34;5027903;28;20061;-68
2022/03/15 05:42:29;;;;;;;41.95;26.63;;;;;;;-1.77;63.32;96967.31;5030222;28;20072;-68
2022/03/15 05:44:55;;;;;;;46.17;26.77;;;;;;;-1.78;63.53;96958.91;5030007;28;20151;-69
2022/03/15 05:47:21;;;;;;;37.83;26.10;;;;;;;-1.61;63.46;96978.56;5045228;28;20060;-70
2022/03/15 05:49:46;;;;;;;42.72;27.88;;;;;;;-1.67;63.12;96939.69;5049839;28;20110;-70
2022/03/15 05:52:12;;;;;;;42.95;26.38;;;;;;;-1.43;62.92;96971.25;5049531;28;20025;-69
2022/03/15 05:54:37;;;;;;;40.78;26.60;;;;;;;-1.44;63.35;96973.75;5049711;28;20028;-67
2022/03/15 05:57:04;;;;;;;42.83;28.05;;;;;;;-1.20;62.93;96975.78;5049952;28;20406;-68
2022/03/15 05:59:29;;;;;;;42.63;27.23;;;;;;;-1.17;62.57;96978.38;5049659;28;20031;-68
2022/03/15 06:01:55;;;;;;;43.20;26.10;;;;;;;-0.98;61.84;96967.69;5050314;28;20013;-69
2022/03/15 06:04:24;;;;;;;40.30;25.90;;;;;;;-0.85;61.48;96971.22;5047352;28;20468;-70
2022/03/15 06:06:50;;;;;;;50.40;28.08;;;;;;;-0.90;60.25;96921.31;5049755;28;20522;-69
2022/03/15 06:09:15;;;;;;;43.92;26.75;;;;;;;-0.49;59.80;96976.72;5049806;28;20029;-68
2022/03/15 06:11:41;;;;;;;44.53;29.45;;;;;;;-0.28;58.33;96961.78;5049714;28;20032;-68
2022/03/15 06:14:07;;;;;;;43.05;26.67;;;;;;;-0.19;57.91;96968.63;5048951;28;20510;-68
2022/03/15 06:16:33;;;;;;;41.40;27.50;;;;;;;0.00;57.79;96979.81;5048856;28;20047;-67
2022/03/15 06:18:58;;;;;;;43.97;29.25;;;;;;;0.07;57.73;96976.47;5049476;28;20028;-71
2022/03/15 06:21:24;;;;;;;49.75;29.73;;;;;;;0.05;57.53;96962.06;5049451;28;20040;-69
2022/03/15 06:23:49;;;;;;;43.72;28.63;;;;;;;0.14;57.59;96977.38;5049344;28;20087;-70
2022/03/15 06:26:18;;;;;;;48.42;30.92;;;;;;;0.32;57.41;96972.47;5049240;28;20041;-69
2022/03/15 06:28:43;;;;;;;47.25;30.20;;;;;;;0.04;56.40;96928.25;5048587;28;20091;-69
2022/03/15 06:31:09;;;;;;;45.90;29.80;;;;;;;0.38;56.27;96943.78;5048981;28;20033;-70
2022/03/15 06:33:35;;;;;;;47.92;30.88;;;;;;;0.06;55.92;96882.59;5047509;28;20162;-68
2022/03/15 06:36:01;;;;;;;48.53;30.33;;;;;;;0.81;54.79;96968.63;5048812;28;20041;-67
2022/03/15 06:38:27;;;;;;;47.53;29.48;;;;;;;0.89;54.61;96975.44;5049265;28;20124;-68
2022/03/15 06:40:53;;;;;;;47.50;30.25;;;;;;;1.00;54.43;96972.97;5048994;28;20451;-69
2022/03/15 06:43:19;;;;;;;44.63;28.58;;;;;;;1.17;53.78;96962.06;5032070;28;20412;-68
2022/03/15 06:45:46;;;;;;;45.35;28.50;;;;;;;1.55;53.10;96981.72;5046256;28;20389;-68
2022/03/15 06:48:12;;;;;;;39.38;27.05;;;;;;;1.74;51.98;96978.38;5039335;28;20036;-70
2022/03/15 06:50:37;;;;;;;38.50;26.35;;;;;;;1.83;51.56;96973.31;5028429;28;20107;-67
2022/03/15 06:53:03;;;;;;;37.80;26.00;;;;;;;1.77;50.77;96952.09;5030189;28;20029;-68
2022/03/15 06:55:29;;;;;;;41.95;27.02;;;;;;;1.92;50.86;96971.63;5031990;28;20052;-70
2022/03/15 06:57:55;;;;;;;37.42;24.73;;;;;;;1.96;50.18;96951.28;5027799;28;20033;-70
2022/03/15 07:00:21;;;;;;;46.20;26.10;;;;;;;1.95;49.91;96956.38;5034975;28;20087;-70
2022/03/15 07:02:47;;;;;;;48.35;26.17;;;;;;;1.90;50.14;96969.09;5027858;28;20160;-70
2022/03/15 07:05:12;;;;;;;38.33;25.23;;;;;;;1.86;50.50;96971.63;5034148;28;20520;-69
2022/03/15 07:07:39;;;;;;;40.38;25.98;;;;;;;1.91;50.43;96972.50;5025951;28;20398;-70
2022/03/15 07:10:06;;;;;;;41.90;27.08;;;;;;;2.04;50.19;96976.75;5036448;28;20025;-69
2022/03/15 07:12:35;;;;;;;39.72;26.73;;;;;;;2.08;49.70;96955.53;5025752;28;20034;-71
2022/03/15 07:15:02;;;;;;;42.05;27.65;;;;;;;2.32;49.38;96972.56;5036230;28;20124;-70
2022/03/15 07:17:29;;;;;;;46.33;28.65;;;;;;;2.07;49.56;96930.13;5025136;28;20044;-71
2022/03/15 07:19:56;;;;;;;46.85;29.58;;;;;;;2.24;49.71;96975.94;5032300;28;20064;-69
2022/03/15 07:22:23;;;;;;;50.25;30.05;;;;;;;2.33;49.58;96983.59;5043726;28;20037;-71
2022/03/15 07:24:50;;;;;;;44.55;28.92;;;;;;;2.33;49.79;96966.63;5038842;28;20375;-72
2022/03/15 07:27:16;;;;;;;47.40;29.35;;;;;;;1.83;49.35;96863.06;5028398;28;20081;-71
2022/03/15 07:29:41;;;;;;;45.47;30.90;;;;;;;2.14;48.79;96901.28;5028295;28;20489;-71
2022/03/15 07:32:07;;;;;;;55.10;32.25;;;;;;;2.33;49.14;96961.53;5032955;28;20432;-69
2022/03/15 07:34:32;;;;;;;47.20;29.88;;;;;;;2.74;48.52;96975.94;5027319;28;20156;-70
2022/03/15 07:36:59;;;;;;;46.05;31.30;;;;;;;3.00;47.93;96980.19;5033889;28;20045;-70
2022/03/15 07:39:24;;;;;;;53.75;34.97;;;;;;;2.72;47.58;96930.94;5026089;28;20271;-71
2022/03/15 07:41:50;;;;;;;46.88;32.85;;;;;;;2.92;47.03;96944.50;5034663;28;20074;-70
2022/03/15 07:44:16;;;;;;;48.33;33.17;;;;;;;3.24;46.33;96965.66;5045363;28;20462;-69
2022/03/15 07:46:48;;;;;;;47.22;31.13;;;;;;;3.50;46.25;96957.91;5036305;28;20083;-71
2022/03/15 07:49:15;;;;;;;57.03;32.83;;;;;;;3.67;44.66;96933.19;5025781;28;20056;-70
2022/03/15 07:51:40;;;;;;;56.17;35.75;;;;;;;3.85;44.85;96960.31;5036445;28;20036;-71
2022/03/15 07:54:06;;;;;;;47.10;31.90;;;;;;;4.04;44.65;96960.19;5024643;28;20025;-71
2022/03/15 07:56:31;;;;;;;51.65;31.77;;;;;;;4.03;43.66;96938.94;5033081;28;20025;-71
2022/03/15 07:58:57;;;;;;;49.72;31.35;;;;;;;4.19;43.49;96955.00;5028525;28;20463;-69
2022/03/15 08:01:22;;;;;;;47.00;31.35;;;;;;;4.30;43.44;96942.16;5029772;28;20037;-69
2022/03/15 08:03:48;;;;;;;47.55;31.83;;;;;;;3.95;43.41;96869.22;5034621;28;20029;-71
2022/03/15 08:06:14;;;;;;;49.33;30.98;;;;;;;4.63;42.81;96957.22;5030887;28;20108;-71
2022/03/15 08:08:40;;;;;;;42.50;28.33;;;;;;;4.60;42.41;96925.72;5037809;28;20243;-70
2022/03/15 08:11:07;;;;;;;40.45;28.40;;;;;;;4.67;42.04;96943.56;5031123;28;20416;-71
2022/03/15 08:13:37;;;;;;;51.33;31.25;;;;;;;4.27;42.47;96880.88;5037467;28;20057;-71
2022/03/15 08:16:03;;;;;;;44.00;29.20;;;;;;;4.88;42.04;96932.28;5028669;28;20033;-71
2022/03/15 08:18:29;;;;;;;38.22;26.90;;;;;;;5.00;41.14;96931.31;5039466;28;20228;-71
2022/03/15 08:20:55;;;;;;;38.67;26.55;;;;;;;4.92;40.79;96933.94;5028811;28;20033;-73
2022/03/15 08:23:21;;;;;;;42.10;25.40;;;;;;;4.84;40.50;96943.38;5039833;28;20036;-70
2022/03/15 08:25:47;;;;;;;41.60;27.35;;;;;;;4.86;40.82;96916.13;5028834;28;20028;-68
2022/03/15 08:28:13;;;;;;;45.60;28.50;;;;;;;4.71;40.97;96910.28;5037101;28;20048;-69
2022/03/15 08:30:38;;;;;;;38.70;25.85;;;;;;;4.57;40.40;96854.19;5031001;28;20021;-73
2022/03/15 08:33:04;;;;;;;39.33;24.90;;;;;;;5.32;40.77;96926.69;5050412;28;20033;-71
2022/03/15 08:35:30;;;;;;;33.25;22.45;;;;;;;5.22;39.75;96871.38;5051673;28;20487;-70
2022/03/15 08:37:55;;;;;;;38.83;24.00;;;;;;;5.61;39.41;96916.97;5033090;28;20033;-69
2022/03/15 08:40:23;;;;;;;34.72;24.65;;;;;;;5.63;39.14;96887.91;5030861;28;20052;-71
2022/03/15 08:42:48;;;;;;;43.28;24.65;;;;;;;5.66;38.48;96897.28;5045452;28;20037;-70
2022/03/15 08:45:14;;;;;;;41.10;27.10;;;;;;;5.93;38.61;96870.44;5051207;28;20109;-70
2022/03/15 08:47:40;;;;;;;42.20;28.13;;;;;;;5.89;38.84;96866.22;5051075;28;20209;-69
2022/03/15 08:50:08;;;;;;;43.33;27.92;;;;;;;6.54;38.37;96906.22;5051003;28;20060;-72
2022/03/15 08:52:35;;;;;;;39.17;26.88;;;;;;;6.76;37.69;96892.16;5050503;28;20029;-70
2022/03/15 08:55:02;;;;;;;45.33;29.00;;;;;;;6.49;37.26;96837.09;5051338;28;20115;-67
2022/03/15 08:57:28;;;;;;;37.83;26.65;;;;;;;6.47;37.71;96848.25;5051107;28;20471;-72
2022/03/15 08:59:54;;;;;;;40.67;28.33;;;;;;;6.85;37.27;96892.88;5044471;28;20028;-70
2022/03/15 09:02:20;;;;;;;43.80;29.30;;;;;;;7.79;35.27;96830.22;5050570;28;20033;-74
2022/03/15 09:04:46;;;;;;;44.80;30.10;;;;;;;11.36;31.08;96875.53;5050385;28;20033;-70
2022/03/15 09:07:12;;;;;;;49.55;30.05;;;;;;;13.78;26.67;96860.44;5050489;28;20040;-72
2022/03/15 09:09:37;;;;;;;44.47;30.90;;;;;;;15.24;24.23;96856.78;5051278;28;20582;-71
2022/03/15 09:12:03;;;;;;;44.45;30.65;;;;;;;17.02;22.43;96822.59;5050101;28;20048;-70
2022/03/15 09:14:30;;;;;;;42.78;29.45;;;;;;;18.99;20.33;96831.88;5043157;28;20104;-71
2022/03/15 09:16:55;;;;;;;38.83;29.05;;;;;;;20.32;18.53;96821.66;5036803;28;20032;-70
2022/03/15 09:19:21;;;;;;;48.10;29.13;;;;;;;21.84;17.21;96826.75;5050276;28;20040;-73
2022/03/15 09:21:47;;;;;;;51.65;33.10;;;;;;;22.63;16.37;96768.69;5049546;28;20428;-70
2022/03/15 09:24:12;;;;;;;41.28;29.52;;;;;;;23.69;15.42;96814.03;5050421;28;20037;-75
2022/03/15 09:26:42;;;;;;;40.25;30.50;;;;;;;23.96;14.97;96776.56;5050266;28;20029;-72
2022/03/15 09:29:12;;;;;;;36.38;28.70;;;;;;;25.07;14.27;96787.59;5048768;28;20036;-72
2022/03/15 09:31:39;;;;;;;38.58;29.77;;;;;;;26.37;13.43;96786.59;5050175;28;20036;-72
2022/03/15 09:34:05;;;;;;;39.25;30.52;;;;;;;27.07;13.01;96806.13;5050673;28;20035;-72
2022/03/15 09:36:31;;;;;;;37.95;28.58;;;;;;;27.30;12.01;96785.28;5050598;28;20480;-74
2022/03/15 09:38:57;;;;;;;39.90;31.98;;;;;;;28.55;11.31;96801.38;5048824;28;20412;-72
2022/03/15 09:41:26;;;;;;;36.63;28.90;;;;;;;28.32;11.31;96758.72;5049894;28;20025;-72
2022/03/15 09:43:54;;;;;;;36.75;28.58;;;;;;;29.55;10.37;96758.53;5049505;28;20484;-74
2022/03/15 09:46:22;;;;;;;34.72;27.60;;;;;;;29.66;9.89;96787.38;5049895;28;20029;-74
2022/03/15 09:48:59;;;;;;;31.88;26.83;;;;;;;30.03;9.67;96790.38;5049799;28;20024;-72
2022/03/15 09:51:27;;;;;;;31.45;27.27;;;;;;;31.89;9.08;96786.25;5049574;28;20025;-73
2022/03/15 09:53:55;;;;;;;34.20;27.05;;;;;;;32.55;7.91;96745.25;5049443;28;20411;-72
2022/03/15 09:56:21;;;;;;;37.75;26.77;;;;;;;31.67;8.56;96766.75;5049099;28;20033;-74
2022/03/15 09:58:47;;;;;;;33.38;25.67;;;;;;;32.16;7.98;96773.25;5049324;28;20036;-73
2022/03/15 10:01:19;;;;;;;32.22;26.73;;;;;;;31.40;8.69;96693.56;5049200;28;20075;-75
2022/03/15 10:03:46;;;;;;;34.85;28.27;;;;;;;32.63;7.78;96723.75;5049442;28;20023;-72
2022/03/15 10:06:14;;;;;;;27.63;24.98;;;;;;;32.47;7.62;96772.06;5048513;28;20031;-72
2022/03/15 10:08:40;;;;;;;29.45;25.48;;;;;;;32.18;8.38;96741.84;5050420;28;20033;-72
2022/03/15 10:11:06;;;;;;;35.88;27.00;;;;;;;33.10;8.11;96751.59;5049436;28;20021;-71
2022/03/15 10:13:33;;;;;;;56.85;27.90;;;;;;;32.59;7.14;96701.13;5049087;28;20456;-74
2022/03/15 10:16:00;;;;;;;34.60;24.00;;;;;;;31.14;8.46;96742.88;5048507;28;20032;-71
2022/03/15 10:18:27;;;;;;;27.98;23.05;;;;;;;31.20;7.76;96743.97;5047937;28;20495;-74
2022/03/15 10:20:53;;;;;;;27.33;23.15;;;;;;;29.17;8.97;96739.69;5049042;28;20121;-73
2022/03/15 10:23:24;;;;;;;25.67;22.30;;;;;;;30.78;8.15;96740.91;5048197;28;20067;-71
2022/03/15 10:25:53;;;;;;;29.67;23.65;;;;;;;29.59;8.77;96745.72;5047021;28;20029;-68
2022/03/15 10:28:19;;;;;;;32.70;24.95;;;;;;;31.28;8.27;96682.56;5048102;28;20467;-72
2022/03/15 10:30:47;;;;;;;34.88;23.83;;;;;;;31.18;7.62;96735.34;5047655;28;20100;-72
2022/03/15 10:33:16;;;;;;;21.63;19.33;;;;;;;30.55;7.93;96730.28;5046807;28;20362;-68
2022/03/15 10:35:43;;;;;;;22.67;17.60;;;;;;;31.80;7.19;96718.88;5035571;28;20029;-73
2022/03/15 10:38:09;;;;;;;23.75;20.13;;;;;;;32.62;6.91;96706.13;5040983;28;20140;-71
2022/03/15 10:40:44;;;;;;;23.30;20.85;;;;;;;32.97;7.00;96709.59;5040631;28;20374;-73
2022/03/15 10:43:12;;;;;;;22.58;19.42;;;;;;;32.77;7.09;96677.44;5038596;28;20021;-71
2022/03/15 10:45:43;;;;;;;20.05;17.40;;;;;;;33.46;6.41;96688.28;5040497;28;20408;-71
2022/03/15 10:48:17;;;;;;;22.42;19.45;;;;;;;32.55;6.68;96702.53;5035338;28;20090;-70
2022/03/15 10:50:53;;;;;;;22.00;17.75;;;;;;;34.47;6.14;96691.97;5027018;28;20040;-69
2022/03/15 10:53:19;;;;;;;15.20;12.50;;;;;;;34.87;5.25;96691.94;5025523;28;20136;-70
2022/03/15 10:55:45;;;;;;;15.32;13.73;;;;;;;35.11;5.15;96683.22;5025723;28;20488;-71
2022/03/15 10:58:20;;;;;;;15.40;13.18;;;;;;;33.68;5.72;96651.50;5027799;28;20069;-71
2022/03/15 11:00:46;;;;;;;13.20;11.70;;;;;;;33.04;6.22;96664.25;5031054;28;20041;-74
2022/03/15 11:03:23;;;;;;;14.18;11.32;;;;;;;32.91;5.99;96632.09;5026963;28;20033;-73
2022/03/15 11:05:50;;;;;;;14.40;11.07;;;;;;;33.13;5.89;96683.59;5040584;28;20403;-72
2022/03/15 11:08:18;;;;;;;14.77;10.35;;;;;;;32.38;6.16;96644.09;5045025;28;20043;-71
2022/03/15 11:10:51;;;;;;;14.63;9.30;;;;;;;31.24;6.51;96643.97;5045151;28;20484;-71
2022/03/15 11:13:17;;;;;;;16.85;10.88;;;;;;;31.67;6.43;96666.22;5044863;28;20084;-70
2022/03/15 11:15:53;;;;;;;18.52;12.27;;;;;;;29.55;7.91;96657.53;5044417;28;20021;-70
2022/03/15 11:18:19;;;;;;;13.25;8.98;;;;;;;29.86;7.17;96648.69;5030959;28;20062;-70